createdAt,value
2022-11-04T00:00:17.217Z,98.2
2022-11-04T00:01:16.716Z,98.1
2022-11-04T00:02:17.235Z,98.0
2022-11-04T00:03:16.744Z,98.0
2022-11-04T00:04:17.282Z,97.8
2022-11-04T00:05:16.740Z,98.0
2022-11-04T00:06:17.211Z,98.0
2022-11-04T00:07:16.664Z,98.1
2022-11-04T00:08:17.119Z,98.2
2022-11-04T00:09:16.565Z,98.2
2022-11-04T00:10:17.028Z,98.2
2022-11-04T00:11:16.462Z,98.0
2022-11-04T00:12:16.619Z,98.0
2022-11-04T00:13:17.092Z,97.3
2022-11-04T00:14:16.568Z,97.6
2022-11-04T00:15:17.042Z,97.7
2022-11-04T00:16:16.569Z,97.5
2022-11-04T00:17:17.112Z,97.7
2022-11-04T00:18:16.592Z,98.0
2022-11-04T00:19:17.072Z,97.9
2022-11-04T00:20:16.510Z,98.0
2022-11-04T00:21:17.000Z,97.8
2022-11-04T00:22:16.485Z,98.0
2022-11-04T00:23:16.918Z,97.8
2022-11-04T00:24:17.349Z,97.8
2022-11-04T00:25:16.785Z,97.8
2022-11-04T00:26:17.236Z,97.9
2022-11-04T00:27:16.740Z,98.0
2022-11-04T00:28:17.208Z,97.8
2022-11-04T00:29:16.700Z,97.8
2022-11-04T00:30:17.211Z,97.8
2022-11-04T00:31:16.726Z,97.9
2022-11-04T00:32:17.331Z,98.0
2022-11-04T00:33:16.841Z,98.1
2022-11-04T00:34:17.305Z,97.9
2022-11-04T00:35:16.746Z,97.9
2022-11-04T00:36:17.186Z,97.9
2022-11-04T00:37:16.621Z,98.2
2022-11-04T00:38:17.074Z,98.2
2022-11-04T00:39:16.519Z,98.1
2022-11-04T00:40:16.963Z,98.0
2022-11-04T00:41:17.424Z,98.2
2022-11-04T00:42:17.368Z,98.3
2022-11-04T00:43:16.844Z,98.2
2022-11-04T00:44:17.367Z,98.2
2022-11-04T00:45:16.853Z,98.2
2022-11-04T00:46:17.340Z,98.2
2022-11-04T00:47:16.836Z,98.2
2022-11-04T00:48:17.309Z,98.2
2022-11-04T00:49:16.766Z,98.2
2022-11-04T00:50:17.217Z,98.5
2022-11-04T00:51:16.663Z,98.3
2022-11-04T00:52:16.644Z,98.3
2022-11-04T00:53:17.087Z,98.4
2022-11-04T00:54:16.534Z,98.5
2022-11-04T00:55:16.989Z,98.5
2022-11-04T00:56:16.440Z,98.5
2022-11-04T00:57:16.911Z,98.5
2022-11-04T00:58:17.401Z,98.6
2022-11-04T00:59:16.878Z,98.7
2022-11-04T01:00:17.351Z,98.6
2022-11-04T01:01:17.017Z,98.6
2022-11-04T01:02:17.642Z,98.7
2022-11-04T01:03:17.171Z,98.7
2022-11-04T01:04:16.631Z,98.8
2022-11-04T01:05:17.061Z,98.8
2022-11-04T01:06:16.513Z,99.0
2022-11-04T01:07:16.939Z,98.9
2022-11-04T01:08:17.395Z,98.9
2022-11-04T01:09:16.848Z,98.9
2022-11-04T01:10:17.295Z,98.9
2022-11-04T01:11:16.751Z,98.8
2022-11-04T01:12:16.968Z,98.8
2022-11-04T01:13:17.435Z,98.8
2022-11-04T01:14:16.924Z,98.9
2022-11-04T01:15:17.391Z,98.8
2022-11-04T01:16:16.941Z,99.0
2022-11-04T01:17:17.441Z,99.2
2022-11-04T01:18:16.941Z,99.1
2022-11-04T01:19:17.406Z,99.2
2022-11-04T01:20:16.872Z,99.2
2022-11-04T01:21:17.312Z,99.3
2022-11-04T01:22:16.888Z,99.3
2022-11-04T01:23:17.331Z,99.3
2022-11-04T01:24:16.772Z,99.4
2022-11-04T01:25:17.215Z,99.5
2022-11-04T01:26:16.719Z,99.5
2022-11-04T01:27:17.231Z,99.5
2022-11-04T01:28:16.699Z,99.6
2022-11-04T01:29:17.197Z,99.7
2022-11-04T01:30:16.689Z,99.8
2022-11-04T01:31:17.147Z,99.8
2022-11-04T01:32:16.905Z,99.7
2022-11-04T01:33:17.343Z,99.7
2022-11-04T01:34:16.805Z,99.7
2022-11-04T01:35:17.233Z,99.7
2022-11-04T01:36:16.669Z,99.7
2022-11-04T01:37:17.096Z,99.8
2022-11-04T01:38:16.551Z,99.8
2022-11-04T01:39:16.974Z,99.8
2022-11-04T01:40:16.449Z,99.8
2022-11-04T01:41:16.940Z,99.9
2022-11-04T01:42:16.770Z,99.9
2022-11-04T01:43:17.263Z,100.0
2022-11-04T01:44:16.722Z,100.0
2022-11-04T01:45:17.204Z,100.0
2022-11-04T01:46:16.692Z,100.0
2022-11-04T01:47:17.116Z,100.0
2022-11-04T01:48:16.540Z,100.0
2022-11-04T01:49:16.981Z,100.0
2022-11-04T01:50:16.472Z,99.9
2022-11-04T01:51:16.910Z,99.9
2022-11-04T01:52:16.852Z,99.9
2022-11-04T01:53:17.313Z,99.9
2022-11-04T01:54:16.756Z,99.9
2022-11-04T01:55:17.205Z,100.0
2022-11-04T01:56:16.683Z,100.0
2022-11-04T01:57:17.142Z,99.9
2022-11-04T01:58:16.590Z,99.9
2022-11-04T01:59:17.047Z,99.8
2022-11-04T02:00:16.518Z,99.8
2022-11-04T02:01:17.270Z,99.8
2022-11-04T02:02:16.995Z,99.8
2022-11-04T02:03:16.505Z,99.8
2022-11-04T02:04:16.986Z,99.8
2022-11-04T02:05:16.431Z,99.7
2022-11-04T02:06:16.876Z,99.3
2022-11-04T02:07:17.359Z,99.2
2022-11-04T02:08:16.799Z,99.4
2022-11-04T02:09:17.304Z,99.3
2022-11-04T02:10:16.783Z,99.2
2022-11-04T02:11:17.238Z,99.2
2022-11-04T02:12:16.703Z,99.2
2022-11-04T02:13:17.171Z,98.8
2022-11-04T02:14:16.649Z,98.8
2022-11-04T02:15:17.112Z,98.7
2022-11-04T02:16:16.555Z,98.5
2022-11-04T02:17:16.997Z,98.5
2022-11-04T02:18:16.436Z,98.3
2022-11-04T02:19:16.888Z,98.2
2022-11-04T02:20:17.346Z,98.3
2022-11-04T02:21:16.769Z,98.4
2022-11-04T02:22:17.123Z,98.5
2022-11-04T02:23:16.566Z,98.6
2022-11-04T02:24:17.020Z,98.6
2022-11-04T02:25:16.527Z,98.7
2022-11-04T02:26:17.000Z,98.3
2022-11-04T02:27:16.461Z,98.4
2022-11-04T02:28:16.952Z,98.4
2022-11-04T02:29:17.422Z,98.5
2022-11-04T02:30:16.889Z,98.6
2022-11-04T02:31:17.369Z,98.8
2022-11-04T02:32:16.790Z,98.8
2022-11-04T02:33:17.262Z,99.0
2022-11-04T02:34:16.699Z,98.9
2022-11-04T02:35:17.140Z,98.5
2022-11-04T02:36:16.575Z,98.5
2022-11-04T02:37:17.020Z,98.3
2022-11-04T02:38:16.507Z,98.2
2022-11-04T02:39:16.969Z,98.0
2022-11-04T02:40:17.460Z,98.0
2022-11-04T02:41:16.936Z,98.0
2022-11-04T02:42:16.488Z,98.0
2022-11-04T02:43:16.948Z,98.1
2022-11-04T02:44:17.416Z,97.7
2022-11-04T02:45:16.848Z,97.2
2022-11-04T02:46:17.294Z,96.8
2022-11-04T02:47:16.741Z,96.8
2022-11-04T02:48:17.169Z,97.0
2022-11-04T02:49:16.618Z,97.2
2022-11-04T02:50:17.045Z,97.2
2022-11-04T02:51:16.490Z,97.2
2022-11-04T02:52:16.526Z,97.0
2022-11-04T02:53:16.996Z,97.0
2022-11-04T02:54:16.452Z,97.0
2022-11-04T02:55:16.919Z,97.1
2022-11-04T02:56:17.415Z,97.2
2022-11-04T02:57:16.891Z,96.9
2022-11-04T02:58:17.349Z,97.0
2022-11-04T02:59:16.811Z,96.9
2022-11-04T03:00:17.245Z,97.0
2022-11-04T03:01:17.067Z,97.1
2022-11-04T03:02:17.038Z,97.2
2022-11-04T03:03:16.585Z,97.3
2022-11-04T03:04:17.006Z,97.6
2022-11-04T03:05:16.478Z,97.6
2022-11-04T03:06:16.918Z,97.5
2022-11-04T03:07:17.412Z,97.5
2022-11-04T03:08:16.910Z,97.7
2022-11-04T03:09:17.376Z,97.4
2022-11-04T03:10:16.843Z,97.7
2022-11-04T03:11:17.303Z,97.7
2022-11-04T03:12:17.302Z,97.8
2022-11-04T03:13:16.765Z,97.4
2022-11-04T03:14:17.206Z,97.5
2022-11-04T03:15:16.650Z,97.8
2022-11-04T03:16:17.071Z,98.0
2022-11-04T03:17:16.512Z,97.8
2022-11-04T03:18:16.957Z,98.2
2022-11-04T03:19:17.437Z,98.3
2022-11-04T03:20:16.877Z,98.2
2022-11-04T03:21:17.316Z,98.3
2022-11-04T03:22:16.561Z,98.3
2022-11-04T03:23:17.031Z,98.3
2022-11-04T03:24:16.499Z,97.8
2022-11-04T03:25:16.986Z,97.7
2022-11-04T03:26:16.461Z,97.0
2022-11-04T03:27:16.959Z,97.3
2022-11-04T03:28:16.447Z,96.9
2022-11-04T03:29:16.894Z,97.0
2022-11-04T03:31:16.761Z,96.9
2022-11-04T03:32:17.100Z,97.2
2022-11-04T03:33:16.560Z,97.1
2022-11-04T03:34:16.983Z,97.2
2022-11-04T03:35:16.419Z,97.4
2022-11-04T03:36:16.881Z,97.4
2022-11-04T03:37:17.425Z,97.4
2022-11-04T03:38:16.881Z,97.0
2022-11-04T03:39:17.344Z,97.0
2022-11-04T03:40:16.827Z,97.2
2022-11-04T03:41:17.301Z,97.0
2022-11-04T03:42:16.968Z,97.0
2022-11-04T03:43:17.413Z,96.8
2022-11-04T03:44:16.858Z,96.7
2022-11-04T03:45:17.317Z,96.8
2022-11-04T03:46:16.746Z,96.5
2022-11-04T03:47:17.173Z,96.7
2022-11-04T03:48:16.648Z,96.7
2022-11-04T03:49:17.070Z,96.8
2022-11-04T03:50:16.501Z,96.9
2022-11-04T03:51:16.974Z,96.9
2022-11-04T03:52:17.379Z,96.9
2022-11-04T03:53:16.947Z,96.9
2022-11-04T03:54:17.456Z,97.1
2022-11-04T03:55:16.935Z,97.1
2022-11-04T03:56:17.434Z,97.2
2022-11-04T03:57:16.943Z,97.2
2022-11-04T03:58:17.367Z,97.3
2022-11-04T03:59:16.810Z,97.0
2022-11-04T04:00:17.267Z,97.2
2022-11-04T04:01:16.830Z,97.2
2022-11-04T04:02:17.208Z,97.3
2022-11-04T04:03:16.656Z,97.6
2022-11-04T04:04:17.099Z,97.7
2022-11-04T04:05:19.161Z,97.5
2022-11-04T04:06:16.621Z,97.8
2022-11-04T04:07:17.115Z,97.8
2022-11-04T04:08:16.594Z,97.8
2022-11-04T04:09:17.059Z,97.7
2022-11-04T04:10:16.534Z,97.5
2022-11-04T04:11:17.007Z,97.8
2022-11-04T04:12:17.431Z,97.2
2022-11-04T04:13:16.870Z,97.2
2022-11-04T04:14:17.317Z,97.2
2022-11-04T04:15:16.761Z,97.3
2022-11-04T04:16:17.204Z,97.3
2022-11-04T04:17:16.711Z,97.2
2022-11-04T04:18:17.183Z,96.7
2022-11-04T04:19:16.658Z,96.7
2022-11-04T04:20:17.117Z,96.8
2022-11-04T04:21:16.601Z,96.8
2022-11-04T04:22:17.206Z,97.0
2022-11-04T04:23:16.689Z,96.4
2022-11-04T04:24:17.169Z,96.5
2022-11-04T04:25:16.638Z,96.4
2022-11-04T04:26:17.088Z,96.0
2022-11-04T04:27:16.538Z,95.8
2022-11-04T04:28:17.006Z,96.1
2022-11-04T04:29:16.435Z,95.9
2022-11-04T04:30:16.863Z,96.0
2022-11-04T04:31:17.285Z,95.8
2022-11-04T04:32:16.994Z,95.8
2022-11-04T04:33:16.452Z,95.7
2022-11-04T04:34:16.929Z,95.7
2022-11-04T04:35:17.385Z,95.5
2022-11-04T04:36:16.866Z,95.7
2022-11-04T04:37:17.350Z,95.3
2022-11-04T04:38:16.853Z,95.5
2022-11-04T04:39:17.315Z,95.6
2022-11-04T04:40:24.939Z,95.0
2022-11-04T04:41:16.545Z,95.0
2022-11-04T04:42:16.595Z,94.9
2022-11-04T04:43:17.042Z,94.8
2022-11-04T04:44:16.492Z,94.7
2022-11-04T04:45:16.962Z,94.4
2022-11-04T04:46:17.397Z,94.8
2022-11-04T04:47:16.853Z,95.0
2022-11-04T04:48:17.330Z,95.2
2022-11-04T04:49:16.791Z,95.5
2022-11-04T04:50:17.294Z,95.8
2022-11-04T04:51:16.776Z,96.0
2022-11-04T04:52:17.148Z,95.8
2022-11-04T04:53:16.627Z,95.8
2022-11-04T04:54:17.059Z,95.6
2022-11-04T04:55:16.524Z,95.8
2022-11-04T04:56:16.961Z,95.7
2022-11-04T04:57:17.416Z,96.0
2022-11-04T04:58:16.857Z,96.0
2022-11-04T04:59:17.299Z,96.0
2022-11-04T05:00:16.732Z,95.9
2022-11-04T05:01:17.484Z,96.2
2022-11-04T05:02:17.163Z,96.6
2022-11-04T05:03:16.822Z,96.6
2022-11-04T05:04:17.271Z,96.5
2022-11-04T05:05:16.780Z,96.2
2022-11-04T05:06:17.254Z,96.6
2022-11-04T05:07:16.741Z,96.7
2022-11-04T05:08:17.170Z,95.8
2022-11-04T05:09:16.626Z,95.5
2022-11-04T05:10:17.073Z,95.8
2022-11-04T05:11:16.539Z,95.9
2022-11-04T05:12:16.519Z,96.2
2022-11-04T05:13:16.983Z,95.9
2022-11-04T05:14:16.427Z,95.7
2022-11-04T05:15:16.915Z,95.9
2022-11-04T05:16:17.383Z,96.2
2022-11-04T05:17:16.853Z,95.9
2022-11-04T05:18:17.316Z,95.3
2022-11-04T05:19:16.798Z,94.4
2022-11-04T05:20:17.269Z,94.6
2022-11-04T05:21:16.750Z,94.6
2022-11-04T05:22:16.416Z,94.8
2022-11-04T05:23:16.860Z,94.5
2022-11-04T05:24:17.281Z,94.8
2022-11-04T05:25:16.740Z,94.8
2022-11-04T05:26:17.168Z,95.2
2022-11-04T05:27:16.601Z,95.3
2022-11-04T05:28:17.068Z,95.2
2022-11-04T05:29:16.604Z,95.1
2022-11-04T05:30:17.095Z,95.1
2022-11-04T05:31:16.604Z,95.3
2022-11-04T05:32:16.827Z,95.6
2022-11-04T05:33:17.300Z,95.3
2022-11-04T05:34:16.764Z,94.7
2022-11-04T05:35:17.243Z,94.8
2022-11-04T05:36:16.733Z,94.7
2022-11-04T05:37:17.178Z,94.3
2022-11-04T05:38:16.648Z,94.5
2022-11-04T05:39:17.105Z,94.3
2022-11-04T05:40:16.576Z,94.8
2022-11-04T05:41:17.016Z,94.8
2022-11-04T05:42:16.630Z,94.5
2022-11-04T05:43:17.086Z,94.1
2022-11-04T05:44:16.552Z,94.3
2022-11-04T05:45:17.023Z,95.0
2022-11-04T05:46:16.484Z,94.8
2022-11-04T05:47:16.987Z,94.5
2022-11-04T05:48:16.485Z,94.2
2022-11-04T05:49:16.965Z,94.2
2022-11-04T05:50:17.478Z,94.2
2022-11-04T05:51:16.912Z,93.9
2022-11-04T05:52:17.127Z,94.0
2022-11-04T05:53:16.790Z,94.2
2022-11-04T05:54:17.247Z,94.0
2022-11-04T05:55:16.694Z,94.2
2022-11-04T05:56:17.174Z,94.2
2022-11-04T05:57:16.610Z,94.0
2022-11-04T05:58:17.067Z,93.8
2022-11-04T05:59:16.573Z,94.2
2022-11-04T06:00:17.062Z,93.9
2022-11-04T06:01:16.629Z,93.8
2022-11-04T06:02:17.628Z,94.0
2022-11-04T06:03:17.344Z,93.8
2022-11-04T06:04:16.855Z,93.6
2022-11-04T06:05:17.316Z,93.8
2022-11-04T06:06:16.753Z,93.7
2022-11-04T06:07:17.195Z,93.9
2022-11-04T06:08:16.640Z,93.9
2022-11-04T06:09:17.102Z,93.9
2022-11-04T06:10:16.530Z,93.9
2022-11-04T06:11:17.020Z,93.7
2022-11-04T06:12:16.905Z,93.9
2022-11-04T06:13:17.367Z,93.7
2022-11-04T06:14:19.157Z,93.7
2022-11-04T06:15:16.628Z,93.8
2022-11-04T06:16:17.112Z,93.4
2022-11-04T06:17:16.585Z,93.2
2022-11-04T06:18:17.068Z,93.5
2022-11-04T06:19:16.704Z,93.3
2022-11-04T06:20:17.198Z,93.4
2022-11-04T06:21:16.644Z,93.3
2022-11-04T06:22:17.014Z,93.5
2022-11-04T06:23:16.452Z,93.3
2022-11-04T06:24:16.880Z,93.4
2022-11-04T06:25:17.316Z,93.3
2022-11-04T06:26:18.455Z,93.5
2022-11-04T06:27:17.093Z,93.1
2022-11-04T06:28:16.594Z,93.2
2022-11-04T06:29:17.097Z,93.2
2022-11-04T06:30:16.609Z,93.1
2022-11-04T06:31:17.076Z,93.2
2022-11-04T06:32:16.981Z,92.3
2022-11-04T06:33:16.471Z,92.8
2022-11-04T06:34:16.920Z,92.9
2022-11-04T06:35:17.381Z,92.8
2022-11-04T06:36:16.858Z,92.7
2022-11-04T06:37:17.333Z,92.8
2022-11-04T06:38:16.779Z,93.5
2022-11-04T06:39:17.245Z,93.5
2022-11-04T06:40:16.676Z,93.3
2022-11-04T06:41:17.176Z,93.6
2022-11-04T06:42:17.047Z,94.0
2022-11-04T06:43:16.539Z,94.0
2022-11-04T06:44:16.999Z,94.3
2022-11-04T06:45:16.487Z,94.2
2022-11-04T06:46:16.995Z,93.0
2022-11-04T06:47:24.532Z,92.3
2022-11-04T06:48:17.190Z,93.4
2022-11-04T06:49:16.664Z,93.5
2022-11-04T06:50:17.113Z,94.0
2022-11-04T06:51:16.546Z,94.2
2022-11-04T06:52:17.138Z,94.4
2022-11-04T06:53:16.567Z,94.7
2022-11-04T06:54:17.029Z,95.3
2022-11-04T06:55:16.497Z,95.3
2022-11-04T06:56:16.986Z,95.3
2022-11-04T06:57:16.471Z,95.2
2022-11-04T06:58:16.938Z,95.4
2022-11-04T06:59:17.427Z,95.5
2022-11-04T07:00:16.908Z,96.1
2022-11-04T07:01:22.436Z,96.2
2022-11-04T07:02:17.518Z,96.3
2022-11-04T07:03:17.088Z,96.0
2022-11-04T07:04:16.512Z,96.1
2022-11-04T07:05:16.993Z,96.1
2022-11-04T07:06:16.430Z,96.2
2022-11-04T07:07:16.862Z,96.5
2022-11-04T07:08:17.306Z,96.4
2022-11-04T07:09:16.775Z,96.6
2022-11-04T07:10:17.227Z,96.7
2022-11-04T07:11:16.719Z,97.1
2022-11-04T07:12:17.106Z,97.2
2022-11-04T07:13:16.578Z,97.6
2022-11-04T07:14:17.073Z,97.6
2022-11-04T07:15:16.553Z,97.5
2022-11-04T07:16:16.989Z,97.5
2022-11-04T07:17:16.490Z,97.8
2022-11-04T07:18:16.937Z,97.7
2022-11-04T07:19:17.371Z,97.5
2022-11-04T07:20:16.803Z,97.4
2022-11-04T07:21:17.228Z,97.5
2022-11-04T07:22:17.048Z,97.5
2022-11-04T07:23:16.531Z,97.6
2022-11-04T07:24:17.045Z,97.6
2022-11-04T07:25:16.523Z,97.5
2022-11-04T07:26:16.988Z,97.8
2022-11-04T07:27:16.453Z,98.1
2022-11-04T07:28:16.939Z,97.5
2022-11-04T07:29:17.398Z,97.6
2022-11-04T07:30:16.857Z,97.6
2022-11-04T07:31:17.332Z,97.3
2022-11-04T07:32:16.982Z,97.6
2022-11-04T07:33:16.451Z,97.6
2022-11-04T07:34:16.894Z,97.7
2022-11-04T07:35:17.326Z,97.9
2022-11-04T07:36:16.794Z,97.8
2022-11-04T07:37:17.322Z,97.9
2022-11-04T07:38:16.796Z,97.6
2022-11-04T07:39:17.294Z,97.6
2022-11-04T07:40:16.777Z,97.8
2022-11-04T07:41:17.235Z,97.6
2022-11-04T07:42:16.979Z,97.8
2022-11-04T07:43:16.496Z,97.8
2022-11-04T07:44:16.991Z,97.8
2022-11-04T07:45:16.468Z,97.6
2022-11-04T07:46:16.912Z,97.6
2022-11-04T07:47:17.431Z,97.4
2022-11-04T07:48:16.866Z,97.3
2022-11-04T07:49:17.319Z,96.9
2022-11-04T07:50:16.943Z,97.0
2022-11-04T07:51:16.469Z,97.1
2022-11-04T07:52:16.770Z,97.1
2022-11-04T07:53:17.232Z,97.2
2022-11-04T07:54:16.692Z,97.3
2022-11-04T07:55:17.193Z,97.0
2022-11-04T07:56:16.678Z,96.7
2022-11-04T07:57:17.143Z,97.0
2022-11-04T07:58:16.630Z,96.5
2022-11-04T07:59:17.079Z,96.5
2022-11-04T08:00:16.527Z,96.7
2022-11-04T08:01:17.029Z,96.7
2022-11-04T08:02:25.902Z,96.7
2022-11-04T08:03:17.141Z,96.7
2022-11-04T08:04:16.603Z,96.5
2022-11-04T08:05:17.053Z,96.6
2022-11-04T08:06:16.505Z,96.5
2022-11-04T08:07:16.995Z,96.8
2022-11-04T08:08:16.450Z,96.8
2022-11-04T08:09:17.063Z,96.8
2022-11-04T08:10:16.602Z,97.2
2022-11-04T08:11:18.156Z,97.1
2022-11-04T08:12:17.110Z,97.1
2022-11-04T08:13:16.578Z,97.1
2022-11-04T08:14:17.040Z,97.2
2022-11-04T08:15:16.467Z,96.6
2022-11-04T08:16:16.926Z,96.5
2022-11-04T08:17:17.579Z,96.5
2022-11-04T08:18:17.039Z,96.6
2022-11-04T08:19:16.533Z,96.7
2022-11-04T08:20:16.988Z,96.4
2022-11-04T08:21:16.487Z,96.2
2022-11-04T08:22:16.612Z,96.2
2022-11-04T08:23:17.124Z,96.2
2022-11-04T08:24:16.622Z,96.5
2022-11-04T08:25:17.265Z,96.7
2022-11-04T08:26:17.056Z,96.5
2022-11-04T08:27:16.668Z,96.4
2022-11-04T08:28:17.177Z,96.1
2022-11-04T08:29:16.617Z,96.6
2022-11-04T08:30:17.107Z,96.3
2022-11-04T08:31:16.569Z,96.1
2022-11-04T08:32:17.335Z,96.0
2022-11-04T08:33:16.814Z,96.0
2022-11-04T08:34:16.454Z,95.8
2022-11-04T08:35:17.026Z,95.8
2022-11-04T08:36:16.552Z,96.3
2022-11-04T08:37:17.069Z,96.0
2022-11-04T08:38:16.553Z,95.8
2022-11-04T08:39:17.051Z,95.8
2022-11-04T08:40:16.562Z,95.9
2022-11-04T08:41:17.028Z,96.3
2022-11-04T08:42:16.941Z,96.5
2022-11-04T08:43:17.375Z,96.0
2022-11-04T08:44:16.851Z,96.3
2022-11-04T08:45:17.296Z,95.9
2022-11-04T08:46:16.735Z,96.1
2022-11-04T08:47:17.197Z,96.2
2022-11-04T08:48:16.662Z,96.2
2022-11-04T08:49:21.712Z,95.9
2022-11-04T08:50:17.192Z,95.9
2022-11-04T08:51:16.686Z,96.0
2022-11-04T08:52:16.977Z,96.1
2022-11-04T08:53:16.443Z,96.2
2022-11-04T08:54:16.924Z,96.3
2022-11-04T08:55:17.404Z,96.3
2022-11-04T08:56:16.873Z,96.3
2022-11-04T08:57:17.358Z,96.5
2022-11-04T08:58:16.787Z,96.3
2022-11-04T08:59:17.199Z,96.1
2022-11-04T09:00:16.658Z,96.0
2022-11-04T09:01:17.200Z,95.8
2022-11-04T09:02:17.329Z,96.1
2022-11-04T09:03:16.835Z,96.6
2022-11-04T09:04:17.474Z,95.9
2022-11-04T09:05:16.982Z,95.5
2022-11-04T09:06:16.426Z,95.6
2022-11-04T09:07:16.901Z,95.4
2022-11-04T09:08:17.354Z,95.3
2022-11-04T09:09:16.819Z,95.4
2022-11-04T09:10:17.326Z,95.6
2022-11-04T09:11:16.814Z,95.1
2022-11-04T09:12:16.752Z,95.6
2022-11-04T09:13:17.182Z,94.8
2022-11-04T09:14:16.636Z,94.6
2022-11-04T09:15:17.097Z,94.3
2022-11-04T09:16:16.563Z,94.0
2022-11-04T09:17:17.033Z,94.8
2022-11-04T09:18:16.465Z,94.3
2022-11-04T09:19:16.925Z,93.9
2022-11-04T09:20:17.380Z,94.0
2022-11-04T09:21:16.827Z,94.1
2022-11-04T09:22:16.517Z,94.0
2022-11-04T09:23:16.968Z,94.0
2022-11-04T09:24:17.449Z,93.8
2022-11-04T09:25:16.911Z,93.7
2022-11-04T09:26:17.392Z,93.5
2022-11-04T09:27:16.827Z,93.7
2022-11-04T09:28:17.300Z,93.7
2022-11-04T09:29:16.769Z,93.4
2022-11-04T09:30:17.210Z,93.7
2022-11-04T09:31:16.665Z,93.8
2022-11-04T09:32:17.386Z,93.4
2022-11-04T09:33:16.824Z,93.1
2022-11-04T09:34:17.291Z,92.8
2022-11-04T09:35:16.823Z,93.0
2022-11-04T09:36:17.380Z,93.3
2022-11-04T09:37:16.896Z,93.0
2022-11-04T09:38:17.361Z,93.2
2022-11-04T09:39:16.859Z,93.6
2022-11-04T09:40:17.509Z,93.7
2022-11-04T09:41:16.973Z,93.2
2022-11-04T09:42:17.210Z,93.0
2022-11-04T09:43:16.636Z,93.0
2022-11-04T09:44:17.111Z,93.0
2022-11-04T09:45:23.695Z,93.0
2022-11-04T09:46:17.359Z,93.0
2022-11-04T09:47:21.947Z,93.0
2022-11-04T09:48:17.471Z,92.8
2022-11-04T09:49:17.014Z,93.0
2022-11-04T09:50:16.498Z,92.7
2022-11-04T09:51:48.336Z,92.7
2022-11-04T09:52:16.624Z,93.1
2022-11-04T09:53:17.099Z,93.6
2022-11-04T09:54:16.567Z,92.8
2022-11-04T09:55:17.059Z,92.7
2022-11-04T09:56:16.517Z,93.0
2022-11-04T09:57:16.979Z,93.4
2022-11-04T09:58:17.593Z,93.2
2022-11-04T09:59:17.085Z,92.6
2022-11-04T10:00:16.512Z,92.3
2022-11-04T10:01:17.149Z,92.3
2022-11-04T10:02:22.388Z,92.2
2022-11-04T10:03:17.053Z,92.2
2022-11-04T10:04:16.529Z,91.8
2022-11-04T10:05:16.990Z,91.7
2022-11-04T10:06:16.474Z,91.8
2022-11-04T10:07:16.948Z,92.3
2022-11-04T10:08:17.453Z,92.2
2022-11-04T10:09:16.960Z,92.5
2022-11-04T10:10:17.442Z,92.8
2022-11-04T10:11:16.886Z,92.1
2022-11-04T10:12:16.547Z,91.8
2022-11-04T10:13:16.986Z,91.6
2022-11-04T10:14:16.422Z,91.5
2022-11-04T10:15:16.841Z,91.8
2022-11-04T10:16:17.299Z,91.7
2022-11-04T10:17:16.771Z,91.7
2022-11-04T10:18:17.247Z,91.7
2022-11-04T10:19:16.723Z,91.3
2022-11-04T10:20:17.230Z,91.5
2022-11-04T10:21:16.700Z,91.3
2022-11-04T10:22:17.428Z,91.3
2022-11-04T10:23:16.903Z,91.2
2022-11-04T10:24:17.362Z,90.8
2022-11-04T10:25:16.795Z,90.7
2022-11-04T10:26:17.244Z,90.5
2022-11-04T10:27:16.676Z,90.7
2022-11-04T10:28:17.154Z,90.3
2022-11-04T10:29:16.594Z,90.0
2022-11-04T10:30:17.066Z,90.0
2022-11-04T10:31:16.509Z,90.6
2022-11-04T10:32:22.744Z,90.8
2022-11-04T10:33:17.270Z,89.8
2022-11-04T10:34:16.764Z,90.2
2022-11-04T10:35:17.222Z,89.9
2022-11-04T10:36:16.712Z,90.0
2022-11-04T10:37:17.185Z,89.8
2022-11-04T10:38:16.711Z,89.3
2022-11-04T10:39:17.148Z,89.2
2022-11-04T10:40:16.635Z,90.1
2022-11-04T10:41:17.059Z,90.2
2022-11-04T10:42:16.636Z,89.9
2022-11-04T10:43:17.073Z,89.1
2022-11-04T10:44:16.561Z,88.8
2022-11-04T10:45:17.058Z,89.3
2022-11-04T10:46:16.529Z,88.8
2022-11-04T10:47:16.999Z,89.0
2022-11-04T10:48:16.471Z,89.2
2022-11-04T10:49:16.941Z,88.2
2022-11-04T10:50:30.679Z,88.4
2022-11-04T10:51:16.465Z,88.2
2022-11-04T10:52:23.088Z,88.1
2022-11-04T10:53:16.629Z,88.2
2022-11-04T10:54:17.072Z,88.0
2022-11-04T10:55:16.528Z,88.2
2022-11-04T10:56:17.096Z,88.0
2022-11-04T10:57:16.726Z,88.6
2022-11-04T10:58:17.152Z,88.2
2022-11-04T10:59:20.690Z,88.3
2022-11-04T11:00:17.227Z,88.5
2022-11-04T11:01:17.096Z,88.0
2022-11-04T11:02:16.603Z,88.8
2022-11-04T11:03:17.083Z,87.5
2022-11-04T11:04:16.579Z,87.2
2022-11-04T11:05:17.066Z,87.1
2022-11-04T11:06:16.555Z,88.2
2022-11-04T11:07:17.026Z,87.3
2022-11-04T11:08:16.477Z,87.2
2022-11-04T11:09:16.951Z,86.7
2022-11-04T11:10:17.534Z,86.8
2022-11-04T11:11:16.995Z,87.5
2022-11-04T11:12:49.856Z,86.5
2022-11-04T11:13:16.614Z,86.6
2022-11-04T11:14:17.055Z,86.5
2022-11-04T11:15:16.507Z,86.4
2022-11-04T11:16:16.957Z,87.4
2022-11-04T11:17:17.468Z,87.4
2022-11-04T11:18:16.954Z,86.2
2022-11-04T11:19:17.436Z,85.9
2022-11-04T11:20:17.074Z,85.8
2022-11-04T11:21:16.621Z,85.8
2022-11-04T11:22:16.792Z,85.7
2022-11-04T11:23:17.239Z,85.7
2022-11-04T11:24:16.746Z,85.7
2022-11-04T11:25:17.188Z,85.7
2022-11-04T11:26:16.613Z,85.5
2022-11-04T11:27:17.086Z,85.8
2022-11-04T11:28:16.513Z,85.6
2022-11-04T11:29:16.938Z,85.6
2022-11-04T11:30:17.445Z,85.8
2022-11-04T11:31:16.955Z,85.5
2022-11-04T11:32:17.029Z,85.4
2022-11-04T11:33:16.500Z,85.6
2022-11-04T11:34:17.011Z,85.4
2022-11-04T11:35:16.468Z,85.6
2022-11-04T11:36:16.929Z,85.5
2022-11-04T11:37:17.410Z,85.6
2022-11-04T11:38:16.853Z,85.5
2022-11-04T11:39:17.290Z,85.5
2022-11-04T11:40:16.757Z,86.8
2022-11-04T11:41:25.972Z,86.8
2022-11-04T11:42:17.242Z,85.8
2022-11-04T11:43:16.696Z,84.9
2022-11-04T11:44:17.136Z,84.9
2022-11-04T11:45:16.653Z,84.9
2022-11-04T11:46:17.106Z,85.0
2022-11-04T11:47:16.566Z,84.6
2022-11-04T11:48:17.039Z,84.5
2022-11-04T11:49:16.514Z,84.9
2022-11-04T11:50:17.020Z,84.8
2022-11-04T11:51:21.883Z,85.2
2022-11-04T11:52:17.376Z,84.8
2022-11-04T11:53:16.831Z,84.9
2022-11-04T11:54:17.273Z,84.9
2022-11-04T11:55:16.726Z,84.3
2022-11-04T11:56:17.180Z,84.3
2022-11-04T11:57:25.097Z,84.7
2022-11-04T12:01:25.614Z,84.1
2022-11-04T12:02:17.636Z,84.5
2022-11-04T12:03:19.210Z,85.0
2022-11-04T12:06:17.275Z,84.1
2022-11-04T12:09:22.751Z,84.5
2022-11-04T12:10:44.528Z,83.2
2022-11-04T12:11:17.371Z,83.0
2022-11-04T12:12:17.137Z,83.3
2022-11-04T12:13:26.551Z,82.8
2022-11-04T12:14:17.127Z,82.5
2022-11-04T12:15:16.558Z,82.8
2022-11-04T12:16:17.022Z,82.7
2022-11-04T12:17:16.508Z,82.8
2022-11-04T12:18:16.978Z,82.3
2022-11-04T12:19:17.473Z,82.1
2022-11-04T12:20:17.166Z,82.0
2022-11-04T12:21:16.685Z,82.6
2022-11-04T12:22:17.203Z,82.8
2022-11-04T12:23:16.672Z,83.0
2022-11-04T12:24:17.131Z,82.4
2022-11-04T12:25:16.562Z,82.7
2022-11-04T12:26:17.002Z,82.8
2022-11-04T12:27:16.429Z,82.6
2022-11-04T12:28:16.884Z,83.0
2022-11-04T12:29:17.323Z,82.2
2022-11-04T12:30:16.769Z,82.4
2022-11-04T12:31:17.249Z,82.3
2022-11-04T12:32:17.108Z,83.0
2022-11-04T12:33:16.581Z,82.2
2022-11-04T12:34:17.058Z,82.4
2022-11-04T12:35:16.576Z,82.3
2022-11-04T12:36:17.053Z,82.6
2022-11-04T12:37:16.537Z,82.4
2022-11-04T12:38:16.976Z,82.5
2022-11-04T12:39:17.412Z,82.7
2022-11-04T12:40:16.856Z,82.6
2022-11-04T12:41:47.025Z,82.9
2022-11-04T12:42:23.778Z,83.3
2022-11-04T12:43:17.013Z,82.5
2022-11-04T12:44:16.469Z,83.0
2022-11-04T12:45:16.914Z,82.8
2022-11-04T12:46:17.369Z,83.1
2022-11-04T12:47:16.855Z,82.9
2022-11-04T12:48:17.301Z,83.0
2022-11-04T12:49:16.765Z,83.3
2022-11-04T12:50:17.267Z,82.8
2022-11-04T12:51:16.818Z,82.9
2022-11-04T12:52:16.907Z,83.6
2022-11-04T12:53:17.324Z,83.9
2022-11-04T12:54:16.795Z,83.5
2022-11-04T12:55:17.233Z,83.1
2022-11-04T12:56:16.658Z,83.3
2022-11-04T12:57:17.119Z,83.8
2022-11-04T12:58:16.587Z,83.5
2022-11-04T12:59:17.031Z,83.6
2022-11-04T13:00:16.481Z,83.7
2022-11-04T13:01:17.406Z,84.0
2022-11-04T13:02:16.786Z,84.1
2022-11-04T13:03:17.402Z,84.5
2022-11-04T13:04:16.880Z,84.7
2022-11-04T13:05:17.356Z,84.6
2022-11-04T13:06:16.816Z,84.8
2022-11-04T13:07:17.281Z,85.1
2022-11-04T13:08:16.728Z,84.4
2022-11-04T13:09:17.190Z,83.8
2022-11-04T13:10:16.620Z,84.0
2022-11-04T13:11:17.049Z,83.9
2022-11-04T13:12:17.084Z,83.5
2022-11-04T13:13:16.554Z,83.5
2022-11-04T13:14:17.022Z,84.0
2022-11-04T13:15:16.493Z,83.8
2022-11-04T13:16:17.005Z,83.7
2022-11-04T13:17:16.462Z,83.7
2022-11-04T13:18:16.939Z,84.0
2022-11-04T13:19:17.433Z,83.9
2022-11-04T13:20:16.914Z,83.7
2022-11-04T13:21:17.416Z,83.9
2022-11-04T13:22:16.447Z,83.7
2022-11-04T13:23:16.877Z,84.0
2022-11-04T13:24:17.356Z,84.1
2022-11-04T13:25:16.821Z,84.1
2022-11-04T13:26:17.250Z,83.7